メルボルン の空港の天気 - METARとTAF

メルボルン空港 ( YMML / MEL ) - オーストラリア ビクトリア州、Melbourne Airport
飛行場実況気象(Metar)
観測時間06/25 23:00 AEST (06/25 13:00 UTC)
風向・風速静穏 0m/s
視程10km以上
天気現象
全天の8割程度の雲 雲底高度 760m
気温9℃
湿度87%
気圧1032hPa
METARYMML 251300Z 00000KT 9999 BKN025 09/07 Q1032 FM1430 VRB05KT 9999 BKN015
過去の天気等 Google飛行場航空写真 Wunderground天気予報

過去48時間のMETAR

飛行場予報(TAF)
発表時間: 6/25 21:23 AEST (6/25 11:23 UTC)
予報対象時間: 25日22時 AEST ~ 27日4時 AEST
風向・風速不定 3m/s
視程10km以上
全天の4割程度の雲 雲底高度 610m
全天の4割程度の雲 雲底高度 1220m
26日0時 AEST から
風向・風速北北西 3m/s
視程10km以上
全天の8割程度の雲 雲底高度 460m
26日11時 AEST から
風向・風速南東 4m/s
視程10km以上
なし
27日1時 AEST から
風向・風速北 3m/s
視程10km以上
なし
26日3時 AEST から 確率 30% で
視程500m
天気現象
全天の8割程度の雲 雲底高度 150m
26日20時 AEST から 確率 30% で
視程500m
天気現象
TAF AMD YMML 251123Z 2512/2618 VRB05KT 9999 SCT020 SCT040
FM251400 33005KT 9999 BKN015
FM260100 13007KT CAVOK
FM261500 36005KT CAVOK
PROB30 2517/2524 0500 FG BKN005
PROB30 2610/2618 0500 FG